sensor_id;sensor_type;location;lat;lon;timestamp;pressure;altitude;pressure_sealevel;temperature;humidity
64916;BME280;51427;-27.442;153.014;2024-02-21T00:01:31;101362.03;;;30.23;56.59
64916;BME280;51427;-27.442;153.014;2024-02-21T00:03:59;101357.25;;;30.23;56.90
64916;BME280;51427;-27.442;153.014;2024-02-21T00:06:27;101360.72;;;29.87;55.74
64916;BME280;51427;-27.442;153.014;2024-02-21T00:08:54;101363.22;;;30.51;55.63
64916;BME280;51427;-27.442;153.014;2024-02-21T00:11:22;101360.47;;;30.55;54.34
64916;BME280;51427;-27.442;153.014;2024-02-21T00:13:50;101354.78;;;29.88;54.85
64916;BME280;51427;-27.442;153.014;2024-02-21T00:16:17;101357.84;;;29.31;55.73
64916;BME280;51427;-27.442;153.014;2024-02-21T00:18:45;101347.00;;;29.78;54.70
64916;BME280;51427;-27.442;153.014;2024-02-21T00:21:13;101347.22;;;29.66;55.26
64916;BME280;51427;-27.442;153.014;2024-02-21T00:23:45;101346.78;;;30.46;53.36
64916;BME280;51427;-27.442;153.014;2024-02-21T00:26:17;101339.03;;;30.06;53.93
64916;BME280;51427;-27.442;153.014;2024-02-21T00:28:45;101342.09;;;29.98;55.92
64916;BME280;51427;-27.442;153.014;2024-02-21T00:31:12;101339.03;;;30.06;52.48
64916;BME280;51427;-27.442;153.014;2024-02-21T00:33:40;101335.78;;;30.34;54.11
64916;BME280;51427;-27.442;153.014;2024-02-21T00:36:08;101332.69;;;29.57;53.69
64916;BME280;51427;-27.442;153.014;2024-02-21T00:38:35;101322.13;;;29.73;54.13
64916;BME280;51427;-27.442;153.014;2024-02-21T00:41:03;101324.88;;;28.75;54.33
64916;BME280;51427;-27.442;153.014;2024-02-21T00:43:31;101317.03;;;29.52;53.80
64916;BME280;51427;-27.442;153.014;2024-02-21T00:45:58;101303.63;;;29.16;53.07
64916;BME280;51427;-27.442;153.014;2024-02-21T00:48:26;101300.53;;;29.44;51.65
64916;BME280;51427;-27.442;153.014;2024-02-21T00:50:54;101297.97;;;29.88;53.51
64916;BME280;51427;-27.442;153.014;2024-02-21T00:53:21;101299.72;;;30.66;52.86
64916;BME280;51427;-27.442;153.014;2024-02-21T00:55:49;101295.28;;;31.02;52.73
64916;BME280;51427;-27.442;153.014;2024-02-21T00:58:17;101285.66;;;30.99;52.20
64916;BME280;51427;-27.442;153.014;2024-02-21T01:00:44;101285.69;;;31.03;50.34
64916;BME280;51427;-27.442;153.014;2024-02-21T01:03:12;101283.81;;;31.18;49.33
64916;BME280;51427;-27.442;153.014;2024-02-21T01:05:40;101276.34;;;30.92;48.74
64916;BME280;51427;-27.442;153.014;2024-02-21T01:08:08;101275.72;;;31.09;50.28
64916;BME280;51427;-27.442;153.014;2024-02-21T01:10:36;101279.63;;;29.94;52.20
64916;BME280;51427;-27.442;153.014;2024-02-21T01:13:03;101274.03;;;31.01;50.76
64916;BME280;51427;-27.442;153.014;2024-02-21T01:15:31;101274.47;;;30.63;49.40
64916;BME280;51427;-27.442;153.014;2024-02-21T01:17:59;101275.94;;;30.49;51.22
64916;BME280;51427;-27.442;153.014;2024-02-21T01:20:26;101266.09;;;31.06;49.26
64916;BME280;51427;-27.442;153.014;2024-02-21T01:22:54;101259.66;;;31.61;48.54
64916;BME280;51427;-27.442;153.014;2024-02-21T01:25:22;101256.47;;;31.66;48.21
64916;BME280;51427;-27.442;153.014;2024-02-21T01:27:50;101259.00;;;30.39;50.24
64916;BME280;51427;-27.442;153.014;2024-02-21T01:30:18;101250.09;;;31.11;50.74
64916;BME280;51427;-27.442;153.014;2024-02-21T01:32:46;101244.75;;;31.49;48.23
64916;BME280;51427;-27.442;153.014;2024-02-21T01:35:13;101230.13;;;31.88;49.17
64916;BME280;51427;-27.442;153.014;2024-02-21T01:37:41;101239.03;;;31.32;49.35
64916;BME280;51427;-27.442;153.014;2024-02-21T01:40:09;101234.41;;;31.64;48.75
64916;BME280;51427;-27.442;153.014;2024-02-21T01:42:40;101231.06;;;31.41;49.36
64916;BME280;51427;-27.442;153.014;2024-02-21T01:45:08;101225.25;;;31.74;47.12
64916;BME280;51427;-27.442;153.014;2024-02-21T01:47:37;101219.00;;;31.40;45.17
64916;BME280;51427;-27.442;153.014;2024-02-21T01:50:07;101212.56;;;31.36;48.76
64916;BME280;51427;-27.442;153.014;2024-02-21T01:52:35;101213.28;;;31.19;48.75
64916;BME280;51427;-27.442;153.014;2024-02-21T01:55:02;101206.06;;;31.22;48.15
64916;BME280;51427;-27.442;153.014;2024-02-21T01:57:30;101203.50;;;31.57;46.13
64916;BME280;51427;-27.442;153.014;2024-02-21T01:59:58;101194.84;;;32.04;47.97
64916;BME280;51427;-27.442;153.014;2024-02-21T02:02:25;101195.72;;;32.16;48.25
64916;BME280;51427;-27.442;153.014;2024-02-21T02:04:53;101194.13;;;32.29;44.28
64916;BME280;51427;-27.442;153.014;2024-02-21T02:07:21;101186.47;;;32.12;43.95
64916;BME280;51427;-27.442;153.014;2024-02-21T02:09:48;101185.47;;;31.58;43.04
64916;BME280;51427;-27.442;153.014;2024-02-21T02:12:16;101181.16;;;31.92;46.14
64916;BME280;51427;-27.442;153.014;2024-02-21T02:14:43;101178.09;;;32.40;41.56
64916;BME280;51427;-27.442;153.014;2024-02-21T02:17:10;101179.25;;;32.18;43.56
64916;BME280;51427;-27.442;153.014;2024-02-21T02:19:38;101179.94;;;31.86;44.86
64916;BME280;51427;-27.442;153.014;2024-02-21T02:22:14;101173.97;;;31.91;46.02
64916;BME280;51427;-27.442;153.014;2024-02-21T02:24:47;101170.81;;;32.14;47.23
64916;BME280;51427;-27.442;153.014;2024-02-21T02:27:14;101164.84;;;32.47;45.43
64916;BME280;51427;-27.442;153.014;2024-02-21T02:29:41;101160.44;;;32.61;45.34
64916;BME280;51427;-27.442;153.014;2024-02-21T02:32:08;101166.59;;;31.51;46.10
64916;BME280;51427;-27.442;153.014;2024-02-21T02:34:36;101150.78;;;31.26;45.43
64916;BME280;51427;-27.442;153.014;2024-02-21T02:37:03;101148.81;;;31.33;45.16
64916;BME280;51427;-27.442;153.014;2024-02-21T02:39:30;101141.97;;;30.66;45.51
64916;BME280;51427;-27.442;153.014;2024-02-21T02:41:58;101145.16;;;31.22;43.89
64916;BME280;51427;-27.442;153.014;2024-02-21T02:44:25;101137.94;;;31.14;44.92
64916;BME280;51427;-27.442;153.014;2024-02-21T02:46:52;101150.06;;;31.43;44.75
64916;BME280;51427;-27.442;153.014;2024-02-21T02:49:20;101129.53;;;32.61;43.55
64916;BME280;51427;-27.442;153.014;2024-02-21T02:51:47;101132.72;;;32.10;44.75
64916;BME280;51427;-27.442;153.014;2024-02-21T02:54:14;101125.28;;;31.52;46.01
64916;BME280;51427;-27.442;153.014;2024-02-21T02:56:42;101128.56;;;31.72;47.18
64916;BME280;51427;-27.442;153.014;2024-02-21T02:59:09;101128.22;;;31.91;44.94
64916;BME280;51427;-27.442;153.014;2024-02-21T03:01:37;101118.19;;;31.90;44.31
64916;BME280;51427;-27.442;153.014;2024-02-21T03:04:04;101128.13;;;31.59;43.78
64916;BME280;51427;-27.442;153.014;2024-02-21T03:06:32;101125.16;;;31.27;43.44
64916;BME280;51427;-27.442;153.014;2024-02-21T03:08:59;101115.09;;;31.23;44.85
64916;BME280;51427;-27.442;153.014;2024-02-21T03:11:27;101112.84;;;31.49;43.01
64916;BME280;51427;-27.442;153.014;2024-02-21T03:13:56;101097.94;;;31.31;42.95
64916;BME280;51427;-27.442;153.014;2024-02-21T03:16:23;101098.59;;;32.25;42.27
64916;BME280;51427;-27.442;153.014;2024-02-21T03:18:50;101090.91;;;31.94;42.15
64916;BME280;51427;-27.442;153.014;2024-02-21T03:21:18;101089.31;;;32.03;43.49
64916;BME280;51427;-27.442;153.014;2024-02-21T03:23:45;101086.94;;;32.09;43.83
64916;BME280;51427;-27.442;153.014;2024-02-21T03:26:12;101072.06;;;32.58;43.55
64916;BME280;51427;-27.442;153.014;2024-02-21T03:28:44;101080.53;;;32.40;43.57
64916;BME280;51427;-27.442;153.014;2024-02-21T03:31:13;101067.28;;;32.51;43.09
64916;BME280;51427;-27.442;153.014;2024-02-21T03:33:42;101065.19;;;33.01;41.29
64916;BME280;51427;-27.442;153.014;2024-02-21T03:36:16;101071.22;;;32.89;43.17
64916;BME280;51427;-27.442;153.014;2024-02-21T03:38:43;101073.19;;;32.99;43.87
64916;BME280;51427;-27.442;153.014;2024-02-21T03:41:11;101066.88;;;32.60;41.87
64916;BME280;51427;-27.442;153.014;2024-02-21T03:43:38;101061.00;;;33.38;43.45
64916;BME280;51427;-27.442;153.014;2024-02-21T03:46:07;101062.34;;;33.05;42.62
64916;BME280;51427;-27.442;153.014;2024-02-21T03:48:34;101049.50;;;32.97;43.38
64916;BME280;51427;-27.442;153.014;2024-02-21T03:51:03;101048.81;;;32.61;42.36
64916;BME280;51427;-27.442;153.014;2024-02-21T03:53:31;101035.84;;;32.92;41.98
64916;BME280;51427;-27.442;153.014;2024-02-21T03:56:01;101038.94;;;33.29;42.15
64916;BME280;51427;-27.442;153.014;2024-02-21T03:58:33;101036.31;;;32.83;44.17
64916;BME280;51427;-27.442;153.014;2024-02-21T04:01:01;101032.72;;;32.65;44.66
64916;BME280;51427;-27.442;153.014;2024-02-21T04:03:30;101043.97;;;31.80;47.31
64916;BME280;51427;-27.442;153.014;2024-02-21T04:05:57;101036.34;;;31.88;49.20
64916;BME280;51427;-27.442;153.014;2024-02-21T04:08:25;101025.91;;;31.78;49.57
64916;BME280;51427;-27.442;153.014;2024-02-21T04:10:52;101032.25;;;30.67;50.75
64916;BME280;51427;-27.442;153.014;2024-02-21T04:13:19;101030.28;;;30.71;50.69
64916;BME280;51427;-27.442;153.014;2024-02-21T04:15:48;101017.97;;;30.93;49.82
64916;BME280;51427;-27.442;153.014;2024-02-21T04:18:15;101016.28;;;30.75;51.10
64916;BME280;51427;-27.442;153.014;2024-02-21T04:20:43;101021.56;;;30.90;52.25
64916;BME280;51427;-27.442;153.014;2024-02-21T04:23:10;101012.34;;;30.25;51.82
64916;BME280;51427;-27.442;153.014;2024-02-21T04:25:37;101006.81;;;30.35;51.94
64916;BME280;51427;-27.442;153.014;2024-02-21T04:28:05;100996.41;;;30.36;51.47
64916;BME280;51427;-27.442;153.014;2024-02-21T04:30:32;100993.06;;;30.16;50.92
64916;BME280;51427;-27.442;153.014;2024-02-21T04:32:59;100985.50;;;30.82;51.08
64916;BME280;51427;-27.442;153.014;2024-02-21T04:35:27;100981.38;;;30.65;51.13
64916;BME280;51427;-27.442;153.014;2024-02-21T04:37:54;100995.78;;;30.60;51.02
64916;BME280;51427;-27.442;153.014;2024-02-21T04:40:22;100983.38;;;30.65;52.17
64916;BME280;51427;-27.442;153.014;2024-02-21T04:42:49;100986.19;;;30.65;50.61
64916;BME280;51427;-27.442;153.014;2024-02-21T04:45:16;100987.84;;;30.76;50.88
64916;BME280;51427;-27.442;153.014;2024-02-21T04:47:43;100984.59;;;30.64;51.54
64916;BME280;51427;-27.442;153.014;2024-02-21T04:50:11;100978.16;;;30.59;51.75
64916;BME280;51427;-27.442;153.014;2024-02-21T04:52:39;100987.16;;;30.28;52.25
64916;BME280;51427;-27.442;153.014;2024-02-21T04:55:06;100978.47;;;30.44;52.78
64916;BME280;51427;-27.442;153.014;2024-02-21T04:57:34;100971.91;;;30.26;52.37
64916;BME280;51427;-27.442;153.014;2024-02-21T05:00:01;100974.34;;;30.27;53.58
64916;BME280;51427;-27.442;153.014;2024-02-21T05:02:30;100971.53;;;30.27;53.42
64916;BME280;51427;-27.442;153.014;2024-02-21T05:04:57;100975.13;;;29.80;53.52
64916;BME280;51427;-27.442;153.014;2024-02-21T05:07:24;100975.41;;;30.12;53.34
64916;BME280;51427;-27.442;153.014;2024-02-21T05:09:52;100981.94;;;29.79;53.98
64916;BME280;51427;-27.442;153.014;2024-02-21T05:12:19;100980.84;;;29.91;54.24
64916;BME280;51427;-27.442;153.014;2024-02-21T05:14:47;100985.06;;;30.15;53.26
64916;BME280;51427;-27.442;153.014;2024-02-21T05:17:15;100973.59;;;29.83;54.91
64916;BME280;51427;-27.442;153.014;2024-02-21T05:19:43;100977.31;;;29.97;54.23
64916;BME280;51427;-27.442;153.014;2024-02-21T05:22:10;100974.41;;;29.87;55.36
64916;BME280;51427;-27.442;153.014;2024-02-21T05:24:39;100982.63;;;29.69;55.60
64916;BME280;51427;-27.442;153.014;2024-02-21T05:27:06;100979.97;;;29.83;55.46
64916;BME280;51427;-27.442;153.014;2024-02-21T05:29:34;100973.94;;;29.78;55.47
64916;BME280;51427;-27.442;153.014;2024-02-21T05:32:01;100981.06;;;29.72;56.65
64916;BME280;51427;-27.442;153.014;2024-02-21T05:34:29;100975.81;;;29.67;56.71
64916;BME280;51427;-27.442;153.014;2024-02-21T05:36:56;100972.47;;;29.50;57.36
64916;BME280;51427;-27.442;153.014;2024-02-21T05:39:26;100974.91;;;29.55;57.23
64916;BME280;51427;-27.442;153.014;2024-02-21T05:41:55;100972.78;;;29.82;57.83
64916;BME280;51427;-27.442;153.014;2024-02-21T05:44:22;100983.56;;;29.40;58.46
64916;BME280;51427;-27.442;153.014;2024-02-21T05:46:49;100974.63;;;29.27;59.91
64916;BME280;51427;-27.442;153.014;2024-02-21T05:49:17;100981.47;;;29.30;60.83
64916;BME280;51427;-27.442;153.014;2024-02-21T05:51:44;100981.38;;;28.93;62.00
64916;BME280;51427;-27.442;153.014;2024-02-21T05:54:15;100988.41;;;28.80;63.23
64916;BME280;51427;-27.442;153.014;2024-02-21T05:56:46;100984.19;;;28.93;63.21
64916;BME280;51427;-27.442;153.014;2024-02-21T05:59:13;100976.00;;;28.77;62.57
64916;BME280;51427;-27.442;153.014;2024-02-21T06:01:41;100981.34;;;28.89;63.22
64916;BME280;51427;-27.442;153.014;2024-02-21T06:04:08;100979.91;;;29.02;63.47
64916;BME280;51427;-27.442;153.014;2024-02-21T06:06:35;100988.88;;;28.85;61.94
64916;BME280;51427;-27.442;153.014;2024-02-21T06:09:03;100978.72;;;29.03;61.22
64916;BME280;51427;-27.442;153.014;2024-02-21T06:11:30;100984.47;;;28.84;61.55
64916;BME280;51427;-27.442;153.014;2024-02-21T06:13:57;100983.91;;;29.01;62.14
64916;BME280;51427;-27.442;153.014;2024-02-21T06:16:24;100986.78;;;29.08;61.84
64916;BME280;51427;-27.442;153.014;2024-02-21T06:18:52;100987.75;;;28.90;61.69
64916;BME280;51427;-27.442;153.014;2024-02-21T06:21:19;100990.41;;;29.12;61.35
64916;BME280;51427;-27.442;153.014;2024-02-21T06:23:46;100984.19;;;28.93;61.23
64916;BME280;51427;-27.442;153.014;2024-02-21T06:26:13;100982.47;;;28.85;61.38
64916;BME280;51427;-27.442;153.014;2024-02-21T06:28:41;100986.94;;;28.89;60.51
64916;BME280;51427;-27.442;153.014;2024-02-21T06:31:09;100990.28;;;29.02;60.26
64916;BME280;51427;-27.442;153.014;2024-02-21T06:33:36;100987.31;;;28.88;60.10
64916;BME280;51427;-27.442;153.014;2024-02-21T06:36:03;100990.50;;;28.86;59.16
64916;BME280;51427;-27.442;153.014;2024-02-21T06:38:31;100990.25;;;28.69;60.31
64916;BME280;51427;-27.442;153.014;2024-02-21T06:40:58;100997.06;;;28.71;60.39
64916;BME280;51427;-27.442;153.014;2024-02-21T06:43:26;101002.13;;;28.62;60.29
64916;BME280;51427;-27.442;153.014;2024-02-21T06:45:54;100998.06;;;28.59;60.17
64916;BME280;51427;-27.442;153.014;2024-02-21T06:48:23;101001.72;;;28.63;60.55
64916;BME280;51427;-27.442;153.014;2024-02-21T06:50:50;101009.59;;;28.54;60.22
64916;BME280;51427;-27.442;153.014;2024-02-21T06:53:17;101010.66;;;28.46;60.86
64916;BME280;51427;-27.442;153.014;2024-02-21T06:55:45;101010.34;;;28.51;61.14
64916;BME280;51427;-27.442;153.014;2024-02-21T06:58:12;101014.91;;;28.37;61.11
64916;BME280;51427;-27.442;153.014;2024-02-21T07:00:40;101024.41;;;28.32;61.97
64916;BME280;51427;-27.442;153.014;2024-02-21T07:03:09;101021.38;;;28.18;62.27
64916;BME280;51427;-27.442;153.014;2024-02-21T07:05:36;101026.22;;;28.21;62.15
64916;BME280;51427;-27.442;153.014;2024-02-21T07:08:04;101033.25;;;28.11;62.38
64916;BME280;51427;-27.442;153.014;2024-02-21T07:10:31;101036.84;;;28.12;62.27
64916;BME280;51427;-27.442;153.014;2024-02-21T07:12:58;101043.53;;;28.07;62.32
64916;BME280;51427;-27.442;153.014;2024-02-21T07:15:26;101035.78;;;27.97;63.36
64916;BME280;51427;-27.442;153.014;2024-02-21T07:17:54;101042.72;;;28.07;63.50
64916;BME280;51427;-27.442;153.014;2024-02-21T07:20:22;101044.22;;;28.01;63.08
64916;BME280;51427;-27.442;153.014;2024-02-21T07:22:49;101050.34;;;27.87;63.93
64916;BME280;51427;-27.442;153.014;2024-02-21T07:25:16;101057.16;;;27.90;64.23
64916;BME280;51427;-27.442;153.014;2024-02-21T07:27:45;101061.50;;;27.87;64.73
64916;BME280;51427;-27.442;153.014;2024-02-21T07:30:12;101063.91;;;27.89;65.61
64916;BME280;51427;-27.442;153.014;2024-02-21T07:32:40;101069.09;;;27.67;66.51
64916;BME280;51427;-27.442;153.014;2024-02-21T07:35:07;101068.22;;;27.63;66.43
64916;BME280;51427;-27.442;153.014;2024-02-21T07:37:38;101081.69;;;27.58;66.90
64916;BME280;51427;-27.442;153.014;2024-02-21T07:40:06;101079.50;;;27.48;66.01
64916;BME280;51427;-27.442;153.014;2024-02-21T07:42:39;101083.09;;;27.48;66.20
64916;BME280;51427;-27.442;153.014;2024-02-21T07:45:07;101091.34;;;27.26;67.02
64916;BME280;51427;-27.442;153.014;2024-02-21T07:47:36;101086.16;;;27.24;67.58
64916;BME280;51427;-27.442;153.014;2024-02-21T07:50:04;101083.63;;;27.19;68.11
64916;BME280;51427;-27.442;153.014;2024-02-21T07:52:32;101083.72;;;27.23;68.41
64916;BME280;51427;-27.442;153.014;2024-02-21T07:54:59;101086.78;;;27.17;68.64
64916;BME280;51427;-27.442;153.014;2024-02-21T07:57:26;101101.03;;;27.12;69.06
64916;BME280;51427;-27.442;153.014;2024-02-21T07:59:54;101095.72;;;27.07;68.97
64916;BME280;51427;-27.442;153.014;2024-02-21T08:02:21;101098.09;;;27.05;69.14
64916;BME280;51427;-27.442;153.014;2024-02-21T08:04:49;101093.25;;;27.02;69.45
64916;BME280;51427;-27.442;153.014;2024-02-21T08:07:16;101117.78;;;26.97;69.88
64916;BME280;51427;-27.442;153.014;2024-02-21T08:09:43;101120.56;;;26.97;69.64
64916;BME280;51427;-27.442;153.014;2024-02-21T08:12:11;101126.59;;;26.99;69.78
64916;BME280;51427;-27.442;153.014;2024-02-21T08:14:38;101125.63;;;26.91;70.31
64916;BME280;51427;-27.442;153.014;2024-02-21T08:17:05;101122.56;;;26.81;70.76
64916;BME280;51427;-27.442;153.014;2024-02-21T08:19:32;101122.22;;;26.82;70.37
64916;BME280;51427;-27.442;153.014;2024-02-21T08:22:00;101121.31;;;26.78;70.80
64916;BME280;51427;-27.442;153.014;2024-02-21T08:24:27;101128.13;;;26.81;70.87
64916;BME280;51427;-27.442;153.014;2024-02-21T08:26:54;101127.06;;;26.69;71.49
64916;BME280;51427;-27.442;153.014;2024-02-21T08:29:22;101135.78;;;26.68;71.75
64916;BME280;51427;-27.442;153.014;2024-02-21T08:31:49;101131.31;;;26.63;72.12
64916;BME280;51427;-27.442;153.014;2024-02-21T08:34:16;101135.34;;;26.66;72.21
64916;BME280;51427;-27.442;153.014;2024-02-21T08:36:44;101132.81;;;26.61;72.87
64916;BME280;51427;-27.442;153.014;2024-02-21T08:39:12;101139.94;;;26.58;72.41
64916;BME280;51427;-27.442;153.014;2024-02-21T08:41:43;101145.50;;;26.58;72.60
64916;BME280;51427;-27.442;153.014;2024-02-21T08:44:10;101145.06;;;26.56;72.52
64916;BME280;51427;-27.442;153.014;2024-02-21T08:46:37;101140.22;;;26.53;72.09
64916;BME280;51427;-27.442;153.014;2024-02-21T08:49:12;101142.19;;;26.53;72.44
64916;BME280;51427;-27.442;153.014;2024-02-21T08:51:40;101146.03;;;26.48;72.73
64916;BME280;51427;-27.442;153.014;2024-02-21T08:54:07;101148.81;;;26.48;73.20
64916;BME280;51427;-27.442;153.014;2024-02-21T08:56:35;101145.03;;;26.41;73.21
64916;BME280;51427;-27.442;153.014;2024-02-21T08:59:02;101150.63;;;26.41;73.41
64916;BME280;51427;-27.442;153.014;2024-02-21T09:01:30;101157.44;;;26.43;73.53
64916;BME280;51427;-27.442;153.014;2024-02-21T09:04:01;101163.81;;;26.44;73.31
64916;BME280;51427;-27.442;153.014;2024-02-21T09:06:29;101166.16;;;26.42;73.68
64916;BME280;51427;-27.442;153.014;2024-02-21T09:08:57;101165.69;;;26.40;73.31
64916;BME280;51427;-27.442;153.014;2024-02-21T09:11:24;101178.09;;;26.42;73.76
64916;BME280;51427;-27.442;153.014;2024-02-21T09:13:53;101189.41;;;26.34;73.68
64916;BME280;51427;-27.442;153.014;2024-02-21T09:16:21;101179.44;;;26.33;74.18
64916;BME280;51427;-27.442;153.014;2024-02-21T09:18:49;101181.44;;;26.32;73.98
64916;BME280;51427;-27.442;153.014;2024-02-21T09:21:16;101184.75;;;26.38;74.07
64916;BME280;51427;-27.442;153.014;2024-02-21T09:23:44;101181.72;;;26.43;73.72
64916;BME280;51427;-27.442;153.014;2024-02-21T09:26:12;101182.69;;;26.35;74.13
64916;BME280;51427;-27.442;153.014;2024-02-21T09:28:43;101196.13;;;26.33;74.18
64916;BME280;51427;-27.442;153.014;2024-02-21T09:31:13;101186.53;;;26.30;74.69
64916;BME280;51427;-27.442;153.014;2024-02-21T09:33:40;101186.44;;;26.27;74.79
64916;BME280;51427;-27.442;153.014;2024-02-21T09:36:08;101183.22;;;26.25;75.00
64916;BME280;51427;-27.442;153.014;2024-02-21T09:38:35;101187.34;;;26.31;74.67
64916;BME280;51427;-27.442;153.014;2024-02-21T09:41:18;101203.69;;;26.32;74.88
64916;BME280;51427;-27.442;153.014;2024-02-21T09:43:45;101211.25;;;26.32;74.91
64916;BME280;51427;-27.442;153.014;2024-02-21T09:46:17;101215.63;;;26.33;74.87
64916;BME280;51427;-27.442;153.014;2024-02-21T09:51:32;101207.16;;;26.29;75.34
64916;BME280;51427;-27.442;153.014;2024-02-21T09:54:00;101211.03;;;26.25;75.78
64916;BME280;51427;-27.442;153.014;2024-02-21T09:56:29;101218.00;;;26.18;75.81
64916;BME280;51427;-27.442;153.014;2024-02-21T09:58:58;101220.56;;;26.23;75.84
64916;BME280;51427;-27.442;153.014;2024-02-21T10:01:25;101221.38;;;26.24;75.76
64916;BME280;51427;-27.442;153.014;2024-02-21T10:03:52;101218.31;;;26.29;75.72
64916;BME280;51427;-27.442;153.014;2024-02-21T10:06:20;101212.19;;;26.23;76.44
64916;BME280;51427;-27.442;153.014;2024-02-21T10:08:55;101223.78;;;26.26;76.32
64916;BME280;51427;-27.442;153.014;2024-02-21T10:11:23;101223.59;;;26.18;76.48
64916;BME280;51427;-27.442;153.014;2024-02-21T10:13:51;101226.06;;;26.36;76.16
64916;BME280;51427;-27.442;153.014;2024-02-21T10:16:30;101232.22;;;26.29;76.26
64916;BME280;51427;-27.442;153.014;2024-02-21T10:18:57;101241.97;;;26.35;76.08
64916;BME280;51427;-27.442;153.014;2024-02-21T10:21:25;101250.47;;;26.27;76.55
64916;BME280;51427;-27.442;153.014;2024-02-21T10:23:52;101260.00;;;26.13;76.82
64916;BME280;51427;-27.442;153.014;2024-02-21T10:26:20;101253.13;;;26.23;76.65
64916;BME280;51427;-27.442;153.014;2024-02-21T10:28:48;101260.78;;;26.26;76.55
64916;BME280;51427;-27.442;153.014;2024-02-21T10:31:27;101272.91;;;26.34;76.16
64916;BME280;51427;-27.442;153.014;2024-02-21T10:34:01;101279.09;;;26.27;76.71
64916;BME280;51427;-27.442;153.014;2024-02-21T10:36:32;101286.41;;;26.32;76.14
64916;BME280;51427;-27.442;153.014;2024-02-21T10:38:59;101299.09;;;26.45;75.81
64916;BME280;51427;-27.442;153.014;2024-02-21T10:41:26;101290.53;;;26.38;75.75
64916;BME280;51427;-27.442;153.014;2024-02-21T10:43:55;101287.00;;;26.25;76.29
64916;BME280;51427;-27.442;153.014;2024-02-21T10:46:24;101294.03;;;26.35;76.07
64916;BME280;51427;-27.442;153.014;2024-02-21T10:49:04;101294.84;;;26.35;75.92
64916;BME280;51427;-27.442;153.014;2024-02-21T10:51:34;101286.41;;;26.32;75.95
64916;BME280;51427;-27.442;153.014;2024-02-21T10:54:27;101288.38;;;26.31;75.95
64916;BME280;51427;-27.442;153.014;2024-02-21T10:57:01;101285.94;;;26.30;76.30
64916;BME280;51427;-27.442;153.014;2024-02-21T10:59:31;101283.09;;;26.42;75.69
64916;BME280;51427;-27.442;153.014;2024-02-21T11:01:59;101289.09;;;26.44;75.47
64916;BME280;51427;-27.442;153.014;2024-02-21T11:04:27;101293.66;;;26.36;75.72
64916;BME280;51427;-27.442;153.014;2024-02-21T11:06:55;101299.59;;;26.35;75.78
64916;BME280;51427;-27.442;153.014;2024-02-21T11:09:30;101301.97;;;26.20;76.78
64916;BME280;51427;-27.442;153.014;2024-02-21T11:12:02;101307.56;;;26.08;76.92
64916;BME280;51427;-27.442;153.014;2024-02-21T11:14:30;101304.75;;;26.20;76.34
64916;BME280;51427;-27.442;153.014;2024-02-21T11:17:13;101311.44;;;26.32;76.30
64916;BME280;51427;-27.442;153.014;2024-02-21T11:19:41;101321.00;;;26.18;76.52
64916;BME280;51427;-27.442;153.014;2024-02-21T11:22:18;101322.00;;;26.26;76.21
64916;BME280;51427;-27.442;153.014;2024-02-21T11:24:46;101317.13;;;26.35;75.95
64916;BME280;51427;-27.442;153.014;2024-02-21T11:27:19;101321.47;;;26.20;76.80
64916;BME280;51427;-27.442;153.014;2024-02-21T11:29:58;101327.78;;;26.33;75.71
64916;BME280;51427;-27.442;153.014;2024-02-21T11:32:26;101324.69;;;26.22;76.65
64916;BME280;51427;-27.442;153.014;2024-02-21T11:35:05;101331.75;;;26.32;75.76
64916;BME280;51427;-27.442;153.014;2024-02-21T11:37:34;101327.03;;;26.08;77.73
64916;BME280;51427;-27.442;153.014;2024-02-21T11:40:05;101331.44;;;26.21;76.74
64916;BME280;51427;-27.442;153.014;2024-02-21T11:42:36;101325.53;;;26.11;77.60
64916;BME280;51427;-27.442;153.014;2024-02-21T11:45:04;101325.69;;;25.90;78.16
64916;BME280;51427;-27.442;153.014;2024-02-21T11:47:31;101331.34;;;25.94;78.04
64916;BME280;51427;-27.442;153.014;2024-02-21T11:49:58;101318.25;;;26.06;77.62
64916;BME280;51427;-27.442;153.014;2024-02-21T11:52:26;101325.78;;;26.18;77.28
64916;BME280;51427;-27.442;153.014;2024-02-21T11:54:54;101325.97;;;26.13;77.05
64916;BME280;51427;-27.442;153.014;2024-02-21T11:57:24;101332.69;;;26.12;77.50
64916;BME280;51427;-27.442;153.014;2024-02-21T11:59:51;101331.47;;;25.97;77.58
64916;BME280;51427;-27.442;153.014;2024-02-21T12:02:21;101320.44;;;26.01;77.76
64916;BME280;51427;-27.442;153.014;2024-02-21T12:04:48;101318.44;;;26.13;77.22
64916;BME280;51427;-27.442;153.014;2024-02-21T12:07:16;101318.25;;;26.06;77.42
64916;BME280;51427;-27.442;153.014;2024-02-21T12:09:44;101324.13;;;25.53;80.10
64916;BME280;51427;-27.442;153.014;2024-02-21T12:12:11;101320.66;;;25.68;79.36
64916;BME280;51427;-27.442;153.014;2024-02-21T12:14:38;101326.16;;;25.92;78.38
64916;BME280;51427;-27.442;153.014;2024-02-21T12:17:06;101325.03;;;25.81;78.52
64916;BME280;51427;-27.442;153.014;2024-02-21T12:19:33;101326.59;;;25.94;77.74
64916;BME280;51427;-27.442;153.014;2024-02-21T12:22:01;101318.31;;;25.82;78.75
64916;BME280;51427;-27.442;153.014;2024-02-21T12:24:32;101320.16;;;25.42;80.21
64916;BME280;51427;-27.442;153.014;2024-02-21T12:26:59;101321.66;;;25.03;82.14
64916;BME280;51427;-27.442;153.014;2024-02-21T12:29:30;101320.63;;;25.32;80.94